Time;durP1;ratioP1;P1;durP2;ratioP2;P2;SDS_P1;SDS_P2;PMS_P1;PMS_P2;Temp;Humidity;BMP_temperature;BMP_pressure;BME280_temperature;BME280_humidity;BME280_pressure;Samples;Min_cycle;Max_cycle;Signal;HPM_P1;HPM_P2
2023/12/03 00:02:37;;;;;;;14.95;8.05;;;;;;;;;;4971759;28;20026;-79
2023/12/03 00:05:23;;;;;;;13.38;7.22;;;;;;;;;;4983377;28;20026;-77
2023/12/03 00:08:09;;;;;;;17.17;8.93;;;;;;;;;;4963255;28;20027;-80
2023/12/03 00:10:54;;;;;;;15.23;7.50;;;;;;;;;;4972262;28;20137;-79
2023/12/03 00:13:39;;;;;;;16.15;9.15;;;;;;;;;;4972291;28;20497;-79
2023/12/03 00:16:24;;;;;;;15.68;8.68;;;;;;;;;;4972730;28;20073;-78
2023/12/03 00:19:09;;;;;;;11.52;6.90;;;;;;;;;;4952933;28;20030;-78
2023/12/03 00:21:55;;;;;;;13.13;7.18;;;;;;;;;;4959088;28;20579;-79
2023/12/03 00:24:40;;;;;;;10.90;6.07;;;;;;;;;;4973545;28;20038;-80
2023/12/03 00:27:25;;;;;;;15.70;7.78;;;;;;;;;;4972160;28;20138;-80
2023/12/03 00:30:11;;;;;;;14.60;7.88;;;;;;;;;;4972626;28;20096;-78
2023/12/03 00:32:56;;;;;;;12.38;8.07;;;;;;;;;;4972940;28;20521;-77
2023/12/03 00:35:41;;;;;;;13.32;7.75;;;;;;;;;;4976211;28;20033;-79
2023/12/03 00:38:27;;;;;;;12.20;6.72;;;;;;;;;;4952778;28;20062;-78
2023/12/03 00:41:12;;;;;;;13.88;7.85;;;;;;;;;;4962955;28;20042;-79
2023/12/03 00:43:57;;;;;;;13.30;7.00;;;;;;;;;;4972760;28;20101;-78
2023/12/03 00:46:42;;;;;;;15.75;8.27;;;;;;;;;;4960054;28;20396;-78
2023/12/03 00:49:28;;;;;;;12.48;6.93;;;;;;;;;;4972098;28;20358;-78
2023/12/03 00:52:13;;;;;;;12.70;6.78;;;;;;;;;;4961133;28;20460;-77
2023/12/03 00:54:58;;;;;;;13.75;7.20;;;;;;;;;;4964978;28;20041;-78
2023/12/03 00:57:44;;;;;;;14.77;8.07;;;;;;;;;;4982344;28;20037;-77
2023/12/03 01:00:29;;;;;;;18.65;8.90;;;;;;;;;;4977801;28;20473;-78
2023/12/03 01:03:14;;;;;;;16.25;8.95;;;;;;;;;;4978375;28;20042;-78
2023/12/03 01:05:59;;;;;;;14.20;7.63;;;;;;;;;;4979836;28;20036;-77
2023/12/03 01:08:45;;;;;;;15.82;7.75;;;;;;;;;;4974085;28;20156;-80
2023/12/03 01:11:30;;;;;;;14.57;7.47;;;;;;;;;;4985759;28;20037;-79
2023/12/03 01:14:15;;;;;;;15.80;8.32;;;;;;;;;;4975113;28;20034;-79
2023/12/03 01:17:00;;;;;;;14.82;8.32;;;;;;;;;;4972185;28;20049;-77
2023/12/03 01:19:46;;;;;;;12.30;6.82;;;;;;;;;;4979395;28;20155;-79
2023/12/03 01:22:31;;;;;;;12.98;7.38;;;;;;;;;;4974222;28;20045;-79
2023/12/03 01:25:16;;;;;;;12.80;7.80;;;;;;;;;;4988095;28;20037;-78
2023/12/03 01:28:01;;;;;;;11.93;6.90;;;;;;;;;;4974442;28;20035;-80
2023/12/03 01:30:47;;;;;;;14.18;7.45;;;;;;;;;;4977951;28;20343;-79
2023/12/03 01:33:32;;;;;;;11.32;6.82;;;;;;;;;;4968859;28;20030;-79
2023/12/03 01:36:17;;;;;;;14.88;8.27;;;;;;;;;;4976778;28;20022;-78
2023/12/03 01:39:05;;;;;;;12.27;6.47;;;;;;;;;;4967500;28;20026;-78
2023/12/03 01:41:51;;;;;;;10.65;5.60;;;;;;;;;;4985160;28;20049;-79
2023/12/03 01:44:36;;;;;;;14.23;6.93;;;;;;;;;;4978570;28;20428;-79
2023/12/03 01:47:21;;;;;;;12.55;7.03;;;;;;;;;;4979145;28;20096;-78
2023/12/03 01:50:07;;;;;;;12.43;7.75;;;;;;;;;;4960046;28;20057;-78
2023/12/03 01:52:53;;;;;;;13.82;8.07;;;;;;;;;;4966157;28;20026;-78
2023/12/03 01:55:39;;;;;;;15.15;8.65;;;;;;;;;;4982081;28;20100;-79
2023/12/03 01:58:24;;;;;;;13.50;6.70;;;;;;;;;;4982777;28;20112;-78
2023/12/03 02:01:09;;;;;;;12.38;6.80;;;;;;;;;;4976401;28;20497;-79
2023/12/03 02:03:54;;;;;;;11.82;6.82;;;;;;;;;;4984862;28;20144;-78
2023/12/03 02:06:39;;;;;;;13.35;7.72;;;;;;;;;;4964343;28;20022;-78
2023/12/03 02:09:25;;;;;;;14.43;7.07;;;;;;;;;;4972599;28;20050;-79
2023/12/03 02:12:10;;;;;;;14.60;7.03;;;;;;;;;;4975070;28;20030;-78
2023/12/03 02:14:55;;;;;;;12.73;7.20;;;;;;;;;;4978724;28;20500;-78
2023/12/03 02:17:40;;;;;;;16.55;8.18;;;;;;;;;;4968075;28;20030;-79
2023/12/03 02:20:25;;;;;;;12.68;6.30;;;;;;;;;;4980406;28;20112;-83
2023/12/03 02:23:11;;;;;;;13.23;7.65;;;;;;;;;;4980933;28;20037;-85
2023/12/03 02:25:56;;;;;;;10.95;6.07;;;;;;;;;;4985928;28;20509;-82
2023/12/03 02:28:41;;;;;;;12.93;7.00;;;;;;;;;;4984056;28;20057;-82
2023/12/03 02:31:27;;;;;;;12.35;7.28;;;;;;;;;;4979804;28;20154;-82
2023/12/03 02:34:13;;;;;;;11.20;7.07;;;;;;;;;;4983028;28;20124;-82
2023/12/03 02:36:58;;;;;;;13.45;7.05;;;;;;;;;;4984244;28;20037;-82
2023/12/03 02:39:43;;;;;;;11.07;6.35;;;;;;;;;;4979963;28;20371;-79
2023/12/03 02:42:29;;;;;;;14.18;7.72;;;;;;;;;;4981697;28;20121;-80
2023/12/03 02:45:14;;;;;;;11.02;6.20;;;;;;;;;;4976721;28;20030;-80
2023/12/03 02:47:59;;;;;;;13.73;7.55;;;;;;;;;;4979207;28;20033;-80
2023/12/03 02:50:45;;;;;;;10.50;6.18;;;;;;;;;;4983025;28;20499;-81
2023/12/03 02:53:30;;;;;;;9.93;6.15;;;;;;;;;;4973788;28;20022;-81
2023/12/03 02:56:16;;;;;;;10.77;6.00;;;;;;;;;;4986951;28;20029;-80
2023/12/03 02:59:01;;;;;;;15.05;5.45;;;;;;;;;;4986698;28;20092;-80
2023/12/03 03:01:46;;;;;;;11.05;6.28;;;;;;;;;;4980855;28;20034;-80
2023/12/03 03:04:31;;;;;;;15.15;8.30;;;;;;;;;;4982222;28;20468;-81
2023/12/03 03:07:17;;;;;;;12.70;6.63;;;;;;;;;;4979148;28;20117;-81
2023/12/03 03:10:02;;;;;;;10.90;6.35;;;;;;;;;;4987737;28;20022;-80
2023/12/03 03:12:48;;;;;;;12.57;6.85;;;;;;;;;;4979866;28;20041;-79
2023/12/03 03:15:33;;;;;;;10.18;5.80;;;;;;;;;;4980465;28;20038;-80
2023/12/03 03:18:18;;;;;;;11.80;6.57;;;;;;;;;;4982778;28;20478;-80
2023/12/03 03:21:04;;;;;;;11.10;6.47;;;;;;;;;;4984757;28;20057;-79
2023/12/03 03:23:49;;;;;;;11.10;6.22;;;;;;;;;;4989093;28;20044;-80
2023/12/03 03:26:34;;;;;;;12.15;6.95;;;;;;;;;;4983765;28;20030;-81
2023/12/03 03:29:19;;;;;;;12.55;6.60;;;;;;;;;;4976075;28;20030;-79
2023/12/03 03:32:05;;;;;;;11.65;6.65;;;;;;;;;;4983332;28;20041;-80
2023/12/03 03:34:50;;;;;;;13.75;7.30;;;;;;;;;;4986659;28;20041;-81
2023/12/03 03:37:35;;;;;;;11.40;6.25;;;;;;;;;;4985508;28;20037;-81
2023/12/03 03:40:20;;;;;;;11.48;6.93;;;;;;;;;;4974672;28;20046;-82
2023/12/03 03:43:06;;;;;;;12.13;6.30;;;;;;;;;;4980849;28;20034;-81
2023/12/03 03:45:51;;;;;;;13.55;7.10;;;;;;;;;;4983188;28;20030;-81
2023/12/03 03:48:37;;;;;;;12.73;6.05;;;;;;;;;;4985296;28;20523;-79
2023/12/03 03:51:22;;;;;;;11.90;5.80;;;;;;;;;;4989270;28;20033;-82
2023/12/03 03:54:07;;;;;;;11.63;6.90;;;;;;;;;;4979226;28;20548;-81
2023/12/03 03:56:52;;;;;;;12.65;6.63;;;;;;;;;;4981027;28;20477;-80
2023/12/03 03:59:38;;;;;;;14.23;7.35;;;;;;;;;;4980153;28;20029;-79
2023/12/03 04:02:23;;;;;;;10.88;6.03;;;;;;;;;;4983100;28;20058;-79
2023/12/03 04:05:08;;;;;;;13.13;6.47;;;;;;;;;;4979365;28;20057;-81
2023/12/03 04:07:56;;;;;;;11.18;6.32;;;;;;;;;;4974632;28;20026;-81
2023/12/03 04:10:42;;;;;;;13.80;7.43;;;;;;;;;;4977409;28;20032;-81
2023/12/03 04:13:27;;;;;;;12.45;7.43;;;;;;;;;;4972939;28;20022;-80
2023/12/03 04:16:19;;;;;;;12.98;6.43;;;;;;;;;;4978407;28;20026;-82
2023/12/03 04:19:06;;;;;;;12.90;7.82;;;;;;;;;;4983006;28;20473;-81
2023/12/03 04:21:51;;;;;;;13.23;8.18;;;;;;;;;;5001347;28;20057;-79
2023/12/03 04:24:37;;;;;;;13.18;7.20;;;;;;;;;;4975176;28;20030;-80
2023/12/03 04:27:22;;;;;;;13.35;7.28;;;;;;;;;;4980076;28;20180;-80
2023/12/03 04:30:08;;;;;;;13.35;7.00;;;;;;;;;;4976778;28;20210;-79
2023/12/03 04:32:53;;;;;;;13.60;7.03;;;;;;;;;;4984026;28;20025;-79
2023/12/03 04:35:38;;;;;;;14.60;7.72;;;;;;;;;;4981368;28;20030;-79
2023/12/03 04:38:24;;;;;;;13.35;7.03;;;;;;;;;;4979405;28;20038;-80
2023/12/03 04:41:09;;;;;;;13.00;7.22;;;;;;;;;;4978365;28;20029;-78
2023/12/03 04:43:54;;;;;;;13.75;8.05;;;;;;;;;;4976658;28;20042;-79
2023/12/03 04:46:42;;;;;;;14.27;7.15;;;;;;;;;;4973148;28;20238;-78
2023/12/03 04:49:28;;;;;;;13.38;7.68;;;;;;;;;;4978462;28;20030;-78
2023/12/03 04:52:13;;;;;;;14.13;7.53;;;;;;;;;;4982160;28;20038;-80
2023/12/03 04:54:58;;;;;;;12.43;6.65;;;;;;;;;;4972249;28;20075;-81
2023/12/03 04:57:43;;;;;;;15.85;9.15;;;;;;;;;;4983401;28;20033;-79
2023/12/03 05:00:28;;;;;;;13.52;6.72;;;;;;;;;;4967272;28;20033;-79
2023/12/03 05:03:14;;;;;;;13.50;7.20;;;;;;;;;;4980718;28;20030;-80
2023/12/03 05:05:59;;;;;;;16.95;8.93;;;;;;;;;;4982023;28;20105;-80
2023/12/03 05:08:44;;;;;;;13.35;7.13;;;;;;;;;;4975222;28;20043;-80
2023/12/03 05:11:30;;;;;;;14.20;7.57;;;;;;;;;;4980924;28;20037;-79
2023/12/03 05:14:15;;;;;;;11.85;6.40;;;;;;;;;;4979184;28;20029;-80
2023/12/03 05:17:00;;;;;;;13.77;7.97;;;;;;;;;;4981046;28;20057;-80
2023/12/03 05:19:45;;;;;;;16.40;8.48;;;;;;;;;;4973304;28;20053;-79
2023/12/03 05:22:31;;;;;;;12.50;7.60;;;;;;;;;;4976898;28;20097;-80
2023/12/03 05:25:16;;;;;;;12.77;7.97;;;;;;;;;;4972990;28;20027;-80
2023/12/03 05:28:01;;;;;;;13.35;7.63;;;;;;;;;;5007088;28;20034;-77
2023/12/03 05:30:46;;;;;;;12.32;6.55;;;;;;;;;;4971707;28;20104;-80
2023/12/03 05:33:31;;;;;;;12.02;7.57;;;;;;;;;;4980341;28;20014;-79
2023/12/03 05:36:21;;;;;;;12.75;7.70;;;;;;;;;;4975775;28;20029;-77
2023/12/03 05:39:06;;;;;;;15.65;7.85;;;;;;;;;;4982639;28;20703;-79
2023/12/03 05:41:52;;;;;;;13.35;7.45;;;;;;;;;;4973791;28;20519;-79
2023/12/03 05:44:37;;;;;;;15.48;8.55;;;;;;;;;;4982939;28;20022;-79
2023/12/03 05:47:22;;;;;;;12.77;7.28;;;;;;;;;;4999718;28;20026;-78
2023/12/03 05:50:07;;;;;;;14.73;8.55;;;;;;;;;;4981295;28;20049;-79
2023/12/03 05:52:53;;;;;;;14.55;7.70;;;;;;;;;;4979282;28;20061;-79
2023/12/03 05:55:38;;;;;;;13.40;7.75;;;;;;;;;;4979053;28;20101;-77
2023/12/03 05:58:23;;;;;;;14.38;7.60;;;;;;;;;;4973593;28;20030;-78
2023/12/03 06:01:08;;;;;;;17.98;8.55;;;;;;;;;;4977010;28;20034;-78
2023/12/03 06:03:54;;;;;;;14.05;8.15;;;;;;;;;;5002758;28;20480;-79
2023/12/03 06:06:39;;;;;;;12.07;6.60;;;;;;;;;;4968566;28;20037;-81
2023/12/03 06:09:24;;;;;;;13.65;7.55;;;;;;;;;;4983492;28;20105;-79
2023/12/03 06:12:09;;;;;;;16.38;8.02;;;;;;;;;;4985496;28;20093;-80
2023/12/03 06:14:55;;;;;;;12.38;6.47;;;;;;;;;;4981001;28;20815;-81
2023/12/03 06:17:40;;;;;;;12.70;8.18;;;;;;;;;;4985039;28;20595;-77
2023/12/03 06:20:25;;;;;;;15.32;8.50;;;;;;;;;;4981230;28;20026;-80
2023/12/03 06:23:11;;;;;;;14.70;8.32;;;;;;;;;;4987492;28;20022;-79
2023/12/03 06:25:56;;;;;;;12.98;7.03;;;;;;;;;;4982151;28;20511;-79
2023/12/03 06:28:41;;;;;;;15.00;7.82;;;;;;;;;;4980638;28;20037;-78
2023/12/03 06:31:27;;;;;;;14.98;7.88;;;;;;;;;;4978796;28;20045;-79
2023/12/03 06:34:12;;;;;;;17.52;7.95;;;;;;;;;;4988988;28;20125;-78
2023/12/03 06:36:59;;;;;;;14.23;7.40;;;;;;;;;;4980290;28;20087;-78
2023/12/03 06:39:44;;;;;;;16.30;8.38;;;;;;;;;;4973335;28;20038;-78
2023/12/03 06:42:29;;;;;;;17.08;8.25;;;;;;;;;;4978774;28;20030;-79
2023/12/03 06:45:15;;;;;;;14.73;7.07;;;;;;;;;;4982355;28;20030;-78
2023/12/03 06:48:00;;;;;;;13.07;7.90;;;;;;;;;;4983847;28;20041;-79
2023/12/03 06:50:45;;;;;;;13.75;7.78;;;;;;;;;;4983530;28;20041;-80
2023/12/03 06:53:30;;;;;;;14.88;8.10;;;;;;;;;;4983931;28;20089;-79
2023/12/03 06:56:15;;;;;;;16.05;8.98;;;;;;;;;;4980721;28;20083;-78
2023/12/03 06:59:01;;;;;;;13.13;7.70;;;;;;;;;;4977942;28;20025;-78
2023/12/03 07:01:46;;;;;;;18.60;9.02;;;;;;;;;;4979514;28;20117;-78
2023/12/03 07:04:32;;;;;;;15.38;8.98;;;;;;;;;;4988169;28;20399;-78
2023/12/03 07:07:17;;;;;;;17.20;9.02;;;;;;;;;;4982667;28;20101;-78
2023/12/03 07:10:03;;;;;;;15.23;7.70;;;;;;;;;;4970898;28;20034;-78
2023/12/03 07:12:48;;;;;;;16.45;8.82;;;;;;;;;;4977395;28;20480;-78
2023/12/03 07:15:33;;;;;;;14.23;7.32;;;;;;;;;;4976623;28;20030;-78
2023/12/03 07:18:18;;;;;;;14.65;7.80;;;;;;;;;;5000345;28;20367;-78
2023/12/03 07:21:04;;;;;;;17.15;8.63;;;;;;;;;;4982885;28;20040;-81
2023/12/03 07:23:49;;;;;;;16.55;7.95;;;;;;;;;;4992781;28;20034;-78
2023/12/03 07:26:34;;;;;;;15.77;8.13;;;;;;;;;;4990318;28;20460;-79
2023/12/03 07:29:20;;;;;;;12.80;6.95;;;;;;;;;;4979716;28;20116;-78
2023/12/03 07:32:05;;;;;;;11.93;6.47;;;;;;;;;;4975561;28;20535;-85
2023/12/03 07:34:50;;;;;;;12.27;7.35;;;;;;;;;;4976886;28;20216;-79
2023/12/03 07:37:38;;;;;;;14.55;8.55;;;;;;;;;;4985292;28;20026;-79
2023/12/03 07:40:24;;;;;;;14.68;8.30;;;;;;;;;;4983072;28;20035;-79
2023/12/03 07:43:09;;;;;;;14.55;7.65;;;;;;;;;;4977585;28;20421;-79
2023/12/03 07:45:54;;;;;;;15.07;7.40;;;;;;;;;;4980355;28;20053;-80
2023/12/03 07:48:39;;;;;;;14.35;7.07;;;;;;;;;;4974630;28;20022;-80
2023/12/03 07:51:25;;;;;;;15.70;8.45;;;;;;;;;;4980119;28;20029;-80
2023/12/03 07:54:11;;;;;;;14.95;8.30;;;;;;;;;;4981272;28;20026;-78
2023/12/03 07:56:56;;;;;;;15.43;8.13;;;;;;;;;;4972516;28;20420;-77
2023/12/03 07:59:41;;;;;;;15.50;8.23;;;;;;;;;;4985017;28;20026;-77
2023/12/03 08:02:26;;;;;;;14.00;8.10;;;;;;;;;;4977117;28;20117;-78
2023/12/03 08:05:12;;;;;;;16.63;9.10;;;;;;;;;;4981686;28;20030;-80
2023/12/03 08:07:58;;;;;;;13.82;8.20;;;;;;;;;;4983588;28;20033;-79
2023/12/03 08:10:43;;;;;;;21.33;9.88;;;;;;;;;;4974746;28;20433;-79
2023/12/03 08:13:28;;;;;;;16.27;8.65;;;;;;;;;;4974970;28;20022;-80
2023/12/03 08:16:13;;;;;;;24.35;10.45;;;;;;;;;;4982021;28;20092;-79
2023/12/03 08:18:58;;;;;;;17.42;8.73;;;;;;;;;;4972390;28;20037;-79
2023/12/03 08:21:44;;;;;;;15.93;8.93;;;;;;;;;;4977521;28;20036;-80
2023/12/03 08:24:29;;;;;;;13.60;8.68;;;;;;;;;;4976369;28;20113;-81
2023/12/03 08:27:14;;;;;;;18.45;9.43;;;;;;;;;;4984533;28;20030;-82
2023/12/03 08:29:59;;;;;;;17.23;9.27;;;;;;;;;;4987793;28;20046;-81
2023/12/03 08:32:45;;;;;;;16.75;9.23;;;;;;;;;;4989527;28;20037;-81
2023/12/03 08:35:31;;;;;;;17.92;9.30;;;;;;;;;;4976630;28;20091;-82
2023/12/03 08:38:16;;;;;;;16.70;8.88;;;;;;;;;;4984194;28;20080;-83
2023/12/03 08:41:01;;;;;;;16.85;9.48;;;;;;;;;;4975062;28;20026;-81
2023/12/03 08:43:47;;;;;;;15.50;8.77;;;;;;;;;;4980886;28;20104;-83
2023/12/03 08:46:32;;;;;;;19.77;10.35;;;;;;;;;;4997032;28;20456;-81
2023/12/03 08:49:17;;;;;;;14.95;8.57;;;;;;;;;;4990122;28;20034;-81
2023/12/03 08:52:02;;;;;;;16.77;9.32;;;;;;;;;;4985002;28;20045;-81
2023/12/03 08:54:48;;;;;;;18.42;9.88;;;;;;;;;;4976421;28;20036;-81
2023/12/03 08:57:33;;;;;;;17.60;10.05;;;;;;;;;;4976822;28;20026;-81
2023/12/03 09:00:18;;;;;;;18.42;10.48;;;;;;;;;;4976334;28;20381;-82
2023/12/03 09:03:04;;;;;;;20.80;10.68;;;;;;;;;;4977647;28;20430;-83
2023/12/03 09:05:50;;;;;;;19.85;10.27;;;;;;;;;;4979788;28;20683;-82
2023/12/03 09:08:35;;;;;;;17.15;9.70;;;;;;;;;;4981692;28;20057;-84
2023/12/03 09:11:22;;;;;;;20.17;11.07;;;;;;;;;;4979377;28;20024;-83
2023/12/03 09:14:07;;;;;;;18.90;10.52;;;;;;;;;;4975084;28;20635;-83
2023/12/03 09:16:52;;;;;;;18.30;9.13;;;;;;;;;;4992158;28;20037;-85
2023/12/03 09:19:37;;;;;;;19.92;10.80;;;;;;;;;;4981547;28;20025;-83
2023/12/03 09:26:12;;;;;;;19.42;10.18;;;;;;;;;;4998976;28;20033;-91
2023/12/03 09:29:36;;;;;;;17.92;10.48;;;;;;;;;;4974274;28;20030;-92
2023/12/03 09:32:21;;;;;;;17.35;9.20;;;;;;;;;;4969201;28;20058;-85
2023/12/03 09:35:07;;;;;;;17.77;10.07;;;;;;;;;;4974203;28;20488;-84
2023/12/03 09:37:52;;;;;;;17.52;10.50;;;;;;;;;;4977792;28;20041;-84
2023/12/03 09:40:37;;;;;;;17.52;10.05;;;;;;;;;;4984144;28;20105;-84
2023/12/03 09:43:26;;;;;;;17.15;9.13;;;;;;;;;;4988512;28;20033;-84
2023/12/03 09:46:15;;;;;;;18.33;10.02;;;;;;;;;;4975924;28;20026;-83
2023/12/03 09:49:00;;;;;;;18.20;10.13;;;;;;;;;;4983001;28;20041;-82
2023/12/03 09:51:46;;;;;;;19.77;11.73;;;;;;;;;;4978868;28;20748;-83
2023/12/03 09:54:31;;;;;;;20.92;10.73;;;;;;;;;;4964658;28;20038;-80
2023/12/03 09:57:17;;;;;;;19.60;10.40;;;;;;;;;;4978072;28;20044;-85
2023/12/03 10:00:05;;;;;;;19.10;11.57;;;;;;;;;;4977509;28;20216;-83
2023/12/03 10:02:52;;;;;;;19.52;11.20;;;;;;;;;;4982821;28;20041;-83
2023/12/03 10:05:37;;;;;;;19.67;11.30;;;;;;;;;;4976422;28;20173;-83
2023/12/03 10:08:23;;;;;;;19.08;10.38;;;;;;;;;;4981335;28;20052;-78
2023/12/03 10:11:09;;;;;;;18.73;9.60;;;;;;;;;;4984419;28;20113;-81
2023/12/03 10:14:01;;;;;;;17.73;10.45;;;;;;;;;;4974137;28;20042;-80
2023/12/03 10:16:47;;;;;;;20.00;10.65;;;;;;;;;;4973267;28;20252;-81
2023/12/03 10:19:32;;;;;;;19.40;10.07;;;;;;;;;;4979917;28;20034;-82
2023/12/03 10:22:29;;;;;;;18.92;11.27;;;;;;;;;;4978613;28;20509;-81
2023/12/03 10:25:33;;;;;;;20.23;10.98;;;;;;;;;;4990020;28;20030;-81
2023/12/03 10:28:20;;;;;;;18.27;10.85;;;;;;;;;;4955929;28;20035;-81
2023/12/03 10:31:15;;;;;;;17.85;10.35;;;;;;;;;;4980607;28;20064;-81
2023/12/03 10:34:03;;;;;;;18.20;10.50;;;;;;;;;;4973268;28;20038;-80
2023/12/03 10:36:49;;;;;;;26.80;12.27;;;;;;;;;;4973437;28;20026;-80
2023/12/03 10:39:36;;;;;;;19.70;10.70;;;;;;;;;;4955468;28;20027;-81
2023/12/03 10:42:22;;;;;;;21.02;11.90;;;;;;;;;;4970359;28;20033;-80
2023/12/03 10:45:11;;;;;;;19.35;10.85;;;;;;;;;;4974395;28;20029;-81
2023/12/03 10:47:58;;;;;;;17.75;10.85;;;;;;;;;;4974196;28;20066;-80
2023/12/03 10:50:45;;;;;;;23.33;11.75;;;;;;;;;;4979676;28;20200;-80
2023/12/03 10:53:31;;;;;;;20.05;10.70;;;;;;;;;;4975140;28;20029;-80
2023/12/03 10:56:19;;;;;;;18.40;10.20;;;;;;;;;;4977527;28;20045;-79
2023/12/03 10:59:11;;;;;;;18.25;11.02;;;;;;;;;;4955830;28;20434;-80
2023/12/03 11:01:57;;;;;;;17.10;10.00;;;;;;;;;;4966676;28;20039;-80
2023/12/03 11:04:48;;;;;;;16.90;9.20;;;;;;;;;;4974418;28;20069;-80
2023/12/03 11:07:33;;;;;;;16.42;10.43;;;;;;;;;;4965496;28;20510;-81
2023/12/03 11:10:18;;;;;;;20.42;11.52;;;;;;;;;;4970591;28;20085;-81
2023/12/03 11:13:04;;;;;;;17.20;9.73;;;;;;;;;;4973749;28;20056;-80
2023/12/03 11:15:50;;;;;;;19.52;10.88;;;;;;;;;;4973814;28;20027;-82
2023/12/03 11:18:38;;;;;;;16.85;10.00;;;;;;;;;;4972815;28;20034;-81
2023/12/03 11:21:27;;;;;;;19.75;11.20;;;;;;;;;;4946880;28;20138;-81
2023/12/03 11:24:13;;;;;;;17.40;9.95;;;;;;;;;;4959938;28;20026;-80
2023/12/03 11:26:58;;;;;;;17.10;9.95;;;;;;;;;;4975189;28;20066;-79
2023/12/03 11:29:50;;;;;;;15.45;9.52;;;;;;;;;;4972530;28;20031;-81
2023/12/03 11:32:36;;;;;;;19.65;8.98;;;;;;;;;;4981632;28;20105;-80
2023/12/03 11:35:24;;;;;;;17.70;9.70;;;;;;;;;;4987526;28;20646;-80
2023/12/03 11:38:22;;;;;;;15.85;9.98;;;;;;;;;;4972574;28;20022;-80
2023/12/03 11:41:07;;;;;;;13.48;7.53;;;;;;;;;;4978068;28;20344;-81
2023/12/03 11:43:53;;;;;;;16.95;10.05;;;;;;;;;;4974233;28;20579;-80
2023/12/03 11:46:44;;;;;;;15.80;9.52;;;;;;;;;;4976066;28;20041;-80
2023/12/03 11:49:30;;;;;;;16.73;9.85;;;;;;;;;;4975850;28;20030;-80
2023/12/03 11:52:15;;;;;;;15.77;9.18;;;;;;;;;;4988871;28;20034;-80
2023/12/03 11:55:05;;;;;;;14.80;9.10;;;;;;;;;;4987347;28;20421;-80
2023/12/03 11:57:51;;;;;;;15.07;9.20;;;;;;;;;;4975850;28;20033;-80
2023/12/03 12:00:37;;;;;;;14.98;9.48;;;;;;;;;;4978939;28;20022;-80
2023/12/03 12:03:24;;;;;;;16.73;8.95;;;;;;;;;;4975620;28;20030;-80
2023/12/03 12:06:10;;;;;;;16.75;9.57;;;;;;;;;;4974516;28;20551;-80
2023/12/03 12:08:56;;;;;;;16.52;9.27;;;;;;;;;;4981057;28;20030;-80
2023/12/03 12:11:41;;;;;;;15.55;9.30;;;;;;;;;;4981906;28;20669;-80
2023/12/03 12:14:26;;;;;;;14.75;9.10;;;;;;;;;;4974186;28;20381;-80
2023/12/03 12:17:11;;;;;;;18.67;10.32;;;;;;;;;;4976399;28;20547;-81
2023/12/03 12:19:57;;;;;;;16.17;9.52;;;;;;;;;;4989046;28;20293;-83
2023/12/03 12:22:42;;;;;;;18.40;9.50;;;;;;;;;;4979486;28;20034;-82
2023/12/03 12:25:27;;;;;;;16.05;8.60;;;;;;;;;;4974663;28;20367;-83
2023/12/03 12:28:13;;;;;;;13.90;7.97;;;;;;;;;;4978281;28;20022;-83
2023/12/03 12:30:58;;;;;;;14.10;7.75;;;;;;;;;;4976049;28;20125;-83
2023/12/03 12:33:43;;;;;;;13.57;8.20;;;;;;;;;;4972205;28;20096;-82
2023/12/03 12:36:28;;;;;;;12.40;7.38;;;;;;;;;;4973469;28;20048;-83
2023/12/03 12:39:26;;;;;;;16.42;9.35;;;;;;;;;;4979160;28;20038;-82
2023/12/03 12:42:22;;;;;;;13.70;8.05;;;;;;;;;;4978562;28;20038;-83
2023/12/03 12:45:25;;;;;;;14.18;8.18;;;;;;;;;;4980990;28;20101;-83
2023/12/03 12:48:33;;;;;;;13.20;7.65;;;;;;;;;;4974441;28;20093;-84
2023/12/03 12:51:26;;;;;;;14.70;7.47;;;;;;;;;;4984224;28;20022;-85
2023/12/03 12:54:12;;;;;;;14.30;7.57;;;;;;;;;;4975198;28;20045;-84
2023/12/03 12:56:57;;;;;;;15.20;8.82;;;;;;;;;;4970405;28;20545;-83
2023/12/03 12:59:43;;;;;;;15.07;7.85;;;;;;;;;;4987099;28;20495;-83
2023/12/03 13:02:28;;;;;;;17.08;8.82;;;;;;;;;;4989313;28;20175;-84
2023/12/03 13:05:13;;;;;;;15.45;8.52;;;;;;;;;;4971778;28;20125;-82
2023/12/03 13:07:58;;;;;;;16.15;8.85;;;;;;;;;;4974315;28;20037;-82
2023/12/03 13:10:44;;;;;;;17.05;9.15;;;;;;;;;;4978901;28;20034;-84
2023/12/03 13:13:29;;;;;;;14.73;8.20;;;;;;;;;;4973961;28;20033;-84
2023/12/03 13:16:14;;;;;;;17.42;8.88;;;;;;;;;;4982083;28;20045;-83
2023/12/03 13:18:59;;;;;;;13.80;8.23;;;;;;;;;;4974966;28;20091;-84
2023/12/03 13:21:45;;;;;;;14.98;7.97;;;;;;;;;;4976722;28;20033;-83
2023/12/03 13:24:31;;;;;;;18.40;10.20;;;;;;;;;;4977425;28;20537;-82
2023/12/03 13:27:17;;;;;;;16.40;10.15;;;;;;;;;;4989123;28;20029;-82
2023/12/03 13:30:04;;;;;;;22.02;8.80;;;;;;;;;;4978055;28;20077;-82
2023/12/03 13:32:50;;;;;;;15.75;8.57;;;;;;;;;;4985325;28;20029;-84
2023/12/03 13:35:36;;;;;;;16.35;7.93;;;;;;;;;;4995218;28;20058;-82
2023/12/03 13:38:21;;;;;;;17.83;9.70;;;;;;;;;;4998638;28;20085;-83
2023/12/03 13:41:06;;;;;;;16.25;8.75;;;;;;;;;;4992695;28;20057;-85
2023/12/03 13:43:52;;;;;;;15.02;8.75;;;;;;;;;;5003839;28;20053;-83
2023/12/03 13:46:38;;;;;;;13.48;8.13;;;;;;;;;;4995808;28;20038;-85
2023/12/03 13:49:23;;;;;;;14.65;8.57;;;;;;;;;;4983448;28;20085;-83
2023/12/03 13:52:08;;;;;;;14.90;8.25;;;;;;;;;;4983494;28;20022;-84
2023/12/03 13:54:55;;;;;;;16.02;8.45;;;;;;;;;;4983063;28;20061;-83
2023/12/03 13:57:40;;;;;;;15.27;8.15;;;;;;;;;;4980250;28;20070;-83
2023/12/03 14:00:26;;;;;;;15.25;7.80;;;;;;;;;;4988827;28;20044;-84
2023/12/03 14:03:11;;;;;;;15.30;7.82;;;;;;;;;;4989705;28;20088;-84
2023/12/03 14:05:56;;;;;;;15.07;8.48;;;;;;;;;;4987249;28;20026;-83
2023/12/03 14:08:42;;;;;;;17.55;8.45;;;;;;;;;;4970067;28;20022;-83
2023/12/03 14:11:27;;;;;;;12.50;7.45;;;;;;;;;;4972940;28;20022;-82
2023/12/03 14:14:12;;;;;;;13.18;7.35;;;;;;;;;;4981080;28;20030;-84
2023/12/03 14:16:58;;;;;;;13.68;6.57;;;;;;;;;;4981694;28;20457;-83
2023/12/03 14:19:43;;;;;;;11.95;6.35;;;;;;;;;;4976405;28;20052;-82
2023/12/03 14:22:29;;;;;;;13.55;7.13;;;;;;;;;;4980018;28;20026;-84
2023/12/03 14:25:14;;;;;;;12.90;7.15;;;;;;;;;;4984692;28;20031;-82
2023/12/03 14:27:59;;;;;;;13.88;6.90;;;;;;;;;;4973053;28;20377;-83
2023/12/03 14:30:44;;;;;;;16.55;7.28;;;;;;;;;;4977885;28;20412;-84
2023/12/03 14:33:30;;;;;;;16.35;9.02;;;;;;;;;;4989188;28;20021;-83
2023/12/03 14:36:18;;;;;;;15.15;7.95;;;;;;;;;;4993157;28;20594;-82
2023/12/03 14:39:03;;;;;;;17.23;8.65;;;;;;;;;;4985614;28;20029;-82
2023/12/03 14:41:49;;;;;;;14.95;7.65;;;;;;;;;;4977216;28;20384;-83
2023/12/03 14:44:34;;;;;;;14.00;7.32;;;;;;;;;;4975894;28;20046;-84
2023/12/03 14:47:19;;;;;;;11.95;6.68;;;;;;;;;;4983343;28;20029;-84
2023/12/03 14:50:05;;;;;;;14.88;8.90;;;;;;;;;;4973383;28;20034;-84
2023/12/03 14:52:50;;;;;;;15.43;7.18;;;;;;;;;;4984168;28;20388;-83
2023/12/03 14:55:35;;;;;;;13.75;7.57;;;;;;;;;;4974287;28;20095;-84
2023/12/03 14:58:20;;;;;;;22.98;10.55;;;;;;;;;;4987129;28;20056;-84
2023/12/03 15:01:06;;;;;;;13.00;7.43;;;;;;;;;;4973639;28;20034;-85
2023/12/03 15:03:51;;;;;;;14.32;8.48;;;;;;;;;;4967926;28;20766;-83
2023/12/03 15:06:36;;;;;;;16.38;9.23;;;;;;;;;;4974327;28;20240;-85
2023/12/03 15:09:25;;;;;;;12.73;7.50;;;;;;;;;;4974229;28;20127;-84
2023/12/03 15:12:10;;;;;;;14.73;8.05;;;;;;;;;;4982508;28;20034;-84
2023/12/03 15:14:56;;;;;;;14.93;8.27;;;;;;;;;;4973823;28;20041;-83
2023/12/03 15:17:42;;;;;;;17.38;9.52;;;;;;;;;;4976646;28;20100;-82
2023/12/03 15:20:27;;;;;;;15.40;8.75;;;;;;;;;;4959189;28;20517;-84
2023/12/03 15:23:12;;;;;;;18.60;9.35;;;;;;;;;;4982761;28;20030;-84
2023/12/03 15:25:59;;;;;;;18.25;10.20;;;;;;;;;;4975743;28;20026;-83
2023/12/03 15:28:45;;;;;;;17.60;10.30;;;;;;;;;;4984461;28;20032;-83
2023/12/03 15:31:30;;;;;;;19.10;10.65;;;;;;;;;;4973482;28;20041;-83
2023/12/03 15:34:15;;;;;;;19.35;10.75;;;;;;;;;;4976459;28;20026;-83
2023/12/03 15:37:00;;;;;;;17.92;9.85;;;;;;;;;;4956676;28;20437;-84
2023/12/03 15:39:48;;;;;;;17.92;10.40;;;;;;;;;;4970009;28;20033;-83
2023/12/03 15:42:33;;;;;;;18.98;10.65;;;;;;;;;;4974782;28;20022;-82
2023/12/03 15:45:23;;;;;;;16.77;9.65;;;;;;;;;;4954851;28;20030;-83
2023/12/03 15:48:09;;;;;;;20.15;10.82;;;;;;;;;;4957161;28;20117;-83
2023/12/03 15:50:55;;;;;;;17.70;9.80;;;;;;;;;;4973283;28;20048;-83
2023/12/03 15:53:40;;;;;;;21.50;11.40;;;;;;;;;;4980600;28;20026;-83
2023/12/03 15:56:25;;;;;;;18.75;10.35;;;;;;;;;;4993518;28;20547;-84
2023/12/03 15:59:11;;;;;;;17.33;10.85;;;;;;;;;;4982989;28;20477;-83
2023/12/03 16:01:56;;;;;;;19.38;11.20;;;;;;;;;;4974070;28;20077;-85
2023/12/03 16:04:45;;;;;;;19.05;10.57;;;;;;;;;;4968565;28;20057;-84
2023/12/03 16:07:30;;;;;;;20.48;11.23;;;;;;;;;;4966692;28;20121;-85
2023/12/03 16:10:20;;;;;;;19.45;11.90;;;;;;;;;;4978723;28;20154;-87
2023/12/03 16:13:05;;;;;;;20.98;11.75;;;;;;;;;;4978206;28;20034;-90
2023/12/03 16:15:51;;;;;;;20.85;11.07;;;;;;;;;;4976091;28;20038;-87
2023/12/03 16:18:36;;;;;;;20.42;12.25;;;;;;;;;;4974590;28;20421;-86
2023/12/03 16:21:21;;;;;;;20.48;11.80;;;;;;;;;;4978615;28;20054;-88
2023/12/03 16:24:06;;;;;;;19.65;11.00;;;;;;;;;;4970596;28;20034;-86